sensor_id;sensor_type;location;lat;lon;timestamp;temperature;humidity
21199;DHT22;10757;51.038;3.712;2022-12-05T00:03:51;4.10;99.90
21199;DHT22;10757;51.038;3.712;2022-12-05T00:06:17;4.10;99.90
21199;DHT22;10757;51.038;3.712;2022-12-05T00:08:44;4.40;99.90
21199;DHT22;10757;51.038;3.712;2022-12-05T00:11:15;4.40;99.90
21199;DHT22;10757;51.038;3.712;2022-12-05T00:13:42;4.30;99.90
21199;DHT22;10757;51.038;3.712;2022-12-05T00:16:13;4.20;99.90
21199;DHT22;10757;51.038;3.712;2022-12-05T00:18:39;4.40;99.90
21199;DHT22;10757;51.038;3.712;2022-12-05T00:21:08;4.50;99.90
21199;DHT22;10757;51.038;3.712;2022-12-05T00:23:38;4.60;99.90
21199;DHT22;10757;51.038;3.712;2022-12-05T00:26:08;4.60;99.90
21199;DHT22;10757;51.038;3.712;2022-12-05T00:28:34;4.40;99.90
21199;DHT22;10757;51.038;3.712;2022-12-05T00:31:04;4.50;99.90
21199;DHT22;10757;51.038;3.712;2022-12-05T00:33:30;4.30;99.90
21199;DHT22;10757;51.038;3.712;2022-12-05T00:36:01;4.30;99.90
21199;DHT22;10757;51.038;3.712;2022-12-05T00:38:27;4.20;99.90
21199;DHT22;10757;51.038;3.712;2022-12-05T00:40:53;4.20;99.90
21199;DHT22;10757;51.038;3.712;2022-12-05T00:43:22;4.60;99.90
21199;DHT22;10757;51.038;3.712;2022-12-05T00:45:48;4.50;99.90
21199;DHT22;10757;51.038;3.712;2022-12-05T00:48:13;4.50;99.90
21199;DHT22;10757;51.038;3.712;2022-12-05T00:50:39;4.40;99.90
21199;DHT22;10757;51.038;3.712;2022-12-05T00:53:05;4.70;99.90
21199;DHT22;10757;51.038;3.712;2022-12-05T00:55:30;4.80;99.90
21199;DHT22;10757;51.038;3.712;2022-12-05T00:57:56;4.50;99.90
21199;DHT22;10757;51.038;3.712;2022-12-05T01:00:21;4.30;99.90
21199;DHT22;10757;51.038;3.712;2022-12-05T01:02:47;4.20;99.90
21199;DHT22;10757;51.038;3.712;2022-12-05T01:05:13;4.30;99.90
21199;DHT22;10757;51.038;3.712;2022-12-05T01:07:38;4.20;99.90
21199;DHT22;10757;51.038;3.712;2022-12-05T01:10:04;4.50;99.90
21199;DHT22;10757;51.038;3.712;2022-12-05T01:12:30;4.50;99.90
21199;DHT22;10757;51.038;3.712;2022-12-05T01:14:56;4.40;99.90
21199;DHT22;10757;51.038;3.712;2022-12-05T01:17:21;4.40;99.90
21199;DHT22;10757;51.038;3.712;2022-12-05T01:19:47;4.60;99.90
21199;DHT22;10757;51.038;3.712;2022-12-05T01:22:13;4.60;99.90
21199;DHT22;10757;51.038;3.712;2022-12-05T01:24:38;4.40;99.90
21199;DHT22;10757;51.038;3.712;2022-12-05T01:27:04;4.40;99.90
21199;DHT22;10757;51.038;3.712;2022-12-05T01:29:30;4.40;99.90
21199;DHT22;10757;51.038;3.712;2022-12-05T01:31:55;4.30;99.90
21199;DHT22;10757;51.038;3.712;2022-12-05T01:34:21;4.30;99.90
21199;DHT22;10757;51.038;3.712;2022-12-05T01:36:47;4.30;99.90
21199;DHT22;10757;51.038;3.712;2022-12-05T01:39:13;4.70;99.90
21199;DHT22;10757;51.038;3.712;2022-12-05T01:41:45;4.80;99.90
21199;DHT22;10757;51.038;3.712;2022-12-05T01:46:48;4.60;99.90
21199;DHT22;10757;51.038;3.712;2022-12-05T01:49:20;4.30;99.90
21199;DHT22;10757;51.038;3.712;2022-12-05T01:52:09;4.60;99.90
21199;DHT22;10757;51.038;3.712;2022-12-05T01:54:35;4.60;99.90
21199;DHT22;10757;51.038;3.712;2022-12-05T01:57:04;4.40;99.90
21199;DHT22;10757;51.038;3.712;2022-12-05T01:59:33;4.30;99.90
21199;DHT22;10757;51.038;3.712;2022-12-05T02:02:01;4.30;99.90
21199;DHT22;10757;51.038;3.712;2022-12-05T02:04:27;4.50;99.90
21199;DHT22;10757;51.038;3.712;2022-12-05T02:06:53;4.60;99.90
21199;DHT22;10757;51.038;3.712;2022-12-05T02:09:20;4.40;99.90
21199;DHT22;10757;51.038;3.712;2022-12-05T02:11:53;4.50;99.90
21199;DHT22;10757;51.038;3.712;2022-12-05T02:30:24;5.10;99.90
21199;DHT22;10757;51.038;3.712;2022-12-05T02:33:11;5.10;99.90
21199;DHT22;10757;51.038;3.712;2022-12-05T02:36:09;4.60;99.90
21199;DHT22;10757;51.038;3.712;2022-12-05T02:42:07;4.20;99.90
21199;DHT22;10757;51.038;3.712;2022-12-05T02:44:27;4.30;99.90
21199;DHT22;10757;51.038;3.712;2022-12-05T02:46:56;4.30;99.90
21199;DHT22;10757;51.038;3.712;2022-12-05T02:49:27;4.50;99.90
21199;DHT22;10757;51.038;3.712;2022-12-05T02:51:58;4.30;99.90
21199;DHT22;10757;51.038;3.712;2022-12-05T02:54:34;4.40;99.90
21199;DHT22;10757;51.038;3.712;2022-12-05T02:57:01;4.30;99.90
21199;DHT22;10757;51.038;3.712;2022-12-05T02:59:27;4.20;99.90
21199;DHT22;10757;51.038;3.712;2022-12-05T03:01:54;4.40;99.90
21199;DHT22;10757;51.038;3.712;2022-12-05T03:04:21;4.60;99.90
21199;DHT22;10757;51.038;3.712;2022-12-05T03:06:51;4.40;99.90
21199;DHT22;10757;51.038;3.712;2022-12-05T03:09:38;4.30;99.90
21199;DHT22;10757;51.038;3.712;2022-12-05T03:12:11;4.20;99.90
21199;DHT22;10757;51.038;3.712;2022-12-05T03:14:46;4.30;99.90
21199;DHT22;10757;51.038;3.712;2022-12-05T03:17:21;4.20;99.90
21199;DHT22;10757;51.038;3.712;2022-12-05T03:22:36;4.30;99.90
21199;DHT22;10757;51.038;3.712;2022-12-05T03:25:03;4.30;99.90
21199;DHT22;10757;51.038;3.712;2022-12-05T03:30:16;4.40;99.90
21199;DHT22;10757;51.038;3.712;2022-12-05T03:33:22;4.30;99.90
21199;DHT22;10757;51.038;3.712;2022-12-05T03:36:02;4.50;99.90
21199;DHT22;10757;51.038;3.712;2022-12-05T03:39:27;4.40;99.90
21199;DHT22;10757;51.038;3.712;2022-12-05T03:44:16;4.40;99.90
21199;DHT22;10757;51.038;3.712;2022-12-05T03:46:52;4.40;99.90
21199;DHT22;10757;51.038;3.712;2022-12-05T03:49:26;4.30;99.90
21199;DHT22;10757;51.038;3.712;2022-12-05T03:52:05;4.40;99.90
21199;DHT22;10757;51.038;3.712;2022-12-05T03:54:39;4.80;99.90
21199;DHT22;10757;51.038;3.712;2022-12-05T04:00:08;5.00;99.90
21199;DHT22;10757;51.038;3.712;2022-12-05T04:02:44;5.10;99.90
21199;DHT22;10757;51.038;3.712;2022-12-05T04:05:25;5.20;99.90
21199;DHT22;10757;51.038;3.712;2022-12-05T04:08:01;5.20;99.90
21199;DHT22;10757;51.038;3.712;2022-12-05T04:10:31;4.90;99.90
21199;DHT22;10757;51.038;3.712;2022-12-05T04:14:00;4.50;99.90
21199;DHT22;10757;51.038;3.712;2022-12-05T04:16:10;4.50;99.90
21199;DHT22;10757;51.038;3.712;2022-12-05T04:18:59;4.70;99.90
21199;DHT22;10757;51.038;3.712;2022-12-05T04:21:32;4.50;99.90
21199;DHT22;10757;51.038;3.712;2022-12-05T04:24:26;4.20;99.90
21199;DHT22;10757;51.038;3.712;2022-12-05T04:30:22;4.40;99.90
21199;DHT22;10757;51.038;3.712;2022-12-05T04:32:51;4.50;99.90
21199;DHT22;10757;51.038;3.712;2022-12-05T04:35:33;4.40;99.90
21199;DHT22;10757;51.038;3.712;2022-12-05T04:38:05;4.30;99.90
21199;DHT22;10757;51.038;3.712;2022-12-05T04:40:39;4.40;99.90
21199;DHT22;10757;51.038;3.712;2022-12-05T04:43:07;4.30;99.90
21199;DHT22;10757;51.038;3.712;2022-12-05T04:45:34;4.30;99.90
21199;DHT22;10757;51.038;3.712;2022-12-05T04:48:06;4.30;99.90
21199;DHT22;10757;51.038;3.712;2022-12-05T04:50:35;4.30;99.90
21199;DHT22;10757;51.038;3.712;2022-12-05T04:53:03;4.30;99.90
21199;DHT22;10757;51.038;3.712;2022-12-05T04:55:32;4.50;99.90
21199;DHT22;10757;51.038;3.712;2022-12-05T04:58:10;4.50;99.90
21199;DHT22;10757;51.038;3.712;2022-12-05T05:00:50;4.60;99.90
21199;DHT22;10757;51.038;3.712;2022-12-05T05:03:29;4.60;99.90
21199;DHT22;10757;51.038;3.712;2022-12-05T05:05:57;4.50;99.90
21199;DHT22;10757;51.038;3.712;2022-12-05T05:08:25;4.50;99.90
21199;DHT22;10757;51.038;3.712;2022-12-05T05:11:12;4.40;99.90
21199;DHT22;10757;51.038;3.712;2022-12-05T05:13:39;4.60;99.90
21199;DHT22;10757;51.038;3.712;2022-12-05T05:16:05;4.80;99.90
21199;DHT22;10757;51.038;3.712;2022-12-05T05:18:31;4.60;99.90
21199;DHT22;10757;51.038;3.712;2022-12-05T05:20:56;4.70;99.90
21199;DHT22;10757;51.038;3.712;2022-12-05T05:23:22;4.70;99.90
21199;DHT22;10757;51.038;3.712;2022-12-05T05:25:55;4.70;99.90
21199;DHT22;10757;51.038;3.712;2022-12-05T05:28:21;4.60;99.90
21199;DHT22;10757;51.038;3.712;2022-12-05T05:30:47;4.60;99.90
21199;DHT22;10757;51.038;3.712;2022-12-05T05:33:14;4.60;99.90
21199;DHT22;10757;51.038;3.712;2022-12-05T05:35:39;4.60;99.90
21199;DHT22;10757;51.038;3.712;2022-12-05T05:38:05;4.50;99.90
21199;DHT22;10757;51.038;3.712;2022-12-05T05:40:34;4.50;99.90
21199;DHT22;10757;51.038;3.712;2022-12-05T05:43:00;4.60;99.90
21199;DHT22;10757;51.038;3.712;2022-12-05T05:45:26;4.60;99.90
21199;DHT22;10757;51.038;3.712;2022-12-05T05:47:52;4.60;99.90
21199;DHT22;10757;51.038;3.712;2022-12-05T05:50:18;4.60;99.90
21199;DHT22;10757;51.038;3.712;2022-12-05T05:52:43;4.60;99.90
21199;DHT22;10757;51.038;3.712;2022-12-05T05:55:09;4.70;99.90
21199;DHT22;10757;51.038;3.712;2022-12-05T05:57:35;4.70;99.90
21199;DHT22;10757;51.038;3.712;2022-12-05T06:00:06;4.80;99.90
21199;DHT22;10757;51.038;3.712;2022-12-05T06:02:33;4.80;99.90
21199;DHT22;10757;51.038;3.712;2022-12-05T06:04:59;4.70;99.90
21199;DHT22;10757;51.038;3.712;2022-12-05T06:07:26;4.80;99.90
21199;DHT22;10757;51.038;3.712;2022-12-05T06:09:52;4.70;99.90
21199;DHT22;10757;51.038;3.712;2022-12-05T06:12:18;4.90;99.90
21199;DHT22;10757;51.038;3.712;2022-12-05T06:14:43;5.10;99.90
21199;DHT22;10757;51.038;3.712;2022-12-05T06:17:09;4.90;99.90
21199;DHT22;10757;51.038;3.712;2022-12-05T06:19:34;4.80;99.90
21199;DHT22;10757;51.038;3.712;2022-12-05T06:22:00;4.80;99.90
21199;DHT22;10757;51.038;3.712;2022-12-05T06:24:26;5.00;99.90
21199;DHT22;10757;51.038;3.712;2022-12-05T06:26:54;5.00;99.90
21199;DHT22;10757;51.038;3.712;2022-12-05T06:29:20;5.00;99.90
21199;DHT22;10757;51.038;3.712;2022-12-05T06:31:46;5.00;99.90
21199;DHT22;10757;51.038;3.712;2022-12-05T06:34:11;4.90;99.90
21199;DHT22;10757;51.038;3.712;2022-12-05T06:36:37;4.90;99.90
21199;DHT22;10757;51.038;3.712;2022-12-05T06:39:03;4.90;99.90
21199;DHT22;10757;51.038;3.712;2022-12-05T06:41:29;5.00;99.90
21199;DHT22;10757;51.038;3.712;2022-12-05T06:43:57;4.90;99.90
21199;DHT22;10757;51.038;3.712;2022-12-05T06:46:24;5.30;99.90
21199;DHT22;10757;51.038;3.712;2022-12-05T06:48:55;5.20;99.90
21199;DHT22;10757;51.038;3.712;2022-12-05T06:51:21;5.00;99.90
21199;DHT22;10757;51.038;3.712;2022-12-05T06:53:47;4.90;99.90
21199;DHT22;10757;51.038;3.712;2022-12-05T06:56:15;5.00;99.90
21199;DHT22;10757;51.038;3.712;2022-12-05T06:58:47;5.00;99.90
21199;DHT22;10757;51.038;3.712;2022-12-05T07:01:15;5.00;99.90
21199;DHT22;10757;51.038;3.712;2022-12-05T07:03:59;5.20;99.90
21199;DHT22;10757;51.038;3.712;2022-12-05T07:06:26;5.20;99.90
21199;DHT22;10757;51.038;3.712;2022-12-05T07:08:51;5.10;99.90
21199;DHT22;10757;51.038;3.712;2022-12-05T07:11:18;5.00;99.90
21199;DHT22;10757;51.038;3.712;2022-12-05T07:13:44;5.00;99.90
21199;DHT22;10757;51.038;3.712;2022-12-05T07:16:10;5.00;99.90
21199;DHT22;10757;51.038;3.712;2022-12-05T07:18:36;5.00;99.90
21199;DHT22;10757;51.038;3.712;2022-12-05T07:21:04;5.00;99.90
21199;DHT22;10757;51.038;3.712;2022-12-05T07:23:30;5.10;99.90
21199;DHT22;10757;51.038;3.712;2022-12-05T07:25:56;5.10;99.90
21199;DHT22;10757;51.038;3.712;2022-12-05T07:28:22;5.10;99.90
21199;DHT22;10757;51.038;3.712;2022-12-05T07:31:01;5.10;99.90
21199;DHT22;10757;51.038;3.712;2022-12-05T07:33:28;5.10;99.90
21199;DHT22;10757;51.038;3.712;2022-12-05T07:36:02;5.10;99.90
21199;DHT22;10757;51.038;3.712;2022-12-05T07:38:29;5.20;99.90
21199;DHT22;10757;51.038;3.712;2022-12-05T07:40:54;5.20;99.90
21199;DHT22;10757;51.038;3.712;2022-12-05T07:43:20;5.20;99.90
21199;DHT22;10757;51.038;3.712;2022-12-05T07:45:48;5.30;99.90
21199;DHT22;10757;51.038;3.712;2022-12-05T07:48:16;5.30;99.90
21199;DHT22;10757;51.038;3.712;2022-12-05T07:50:43;5.20;99.90
21199;DHT22;10757;51.038;3.712;2022-12-05T07:53:10;5.20;99.90
21199;DHT22;10757;51.038;3.712;2022-12-05T07:55:36;5.10;99.90
21199;DHT22;10757;51.038;3.712;2022-12-05T07:58:03;5.10;99.90
21199;DHT22;10757;51.038;3.712;2022-12-05T08:00:33;5.10;99.90
21199;DHT22;10757;51.038;3.712;2022-12-05T08:03:00;5.20;99.90
21199;DHT22;10757;51.038;3.712;2022-12-05T08:05:27;5.20;99.90
21199;DHT22;10757;51.038;3.712;2022-12-05T08:07:53;5.30;99.90
21199;DHT22;10757;51.038;3.712;2022-12-05T08:10:19;5.30;99.90
21199;DHT22;10757;51.038;3.712;2022-12-05T08:12:45;5.40;99.90
21199;DHT22;10757;51.038;3.712;2022-12-05T08:15:12;5.30;99.90
21199;DHT22;10757;51.038;3.712;2022-12-05T08:17:39;5.30;99.90
21199;DHT22;10757;51.038;3.712;2022-12-05T08:20:05;5.10;99.90
21199;DHT22;10757;51.038;3.712;2022-12-05T08:22:31;5.20;99.90
21199;DHT22;10757;51.038;3.712;2022-12-05T08:24:56;5.30;99.90
21199;DHT22;10757;51.038;3.712;2022-12-05T08:27:22;5.40;99.90
21199;DHT22;10757;51.038;3.712;2022-12-05T08:29:48;5.30;99.90
21199;DHT22;10757;51.038;3.712;2022-12-05T08:32:13;5.30;99.90
21199;DHT22;10757;51.038;3.712;2022-12-05T08:34:39;5.20;99.90
21199;DHT22;10757;51.038;3.712;2022-12-05T08:37:07;5.30;99.90
21199;DHT22;10757;51.038;3.712;2022-12-05T08:39:33;5.40;99.90
21199;DHT22;10757;51.038;3.712;2022-12-05T08:42:01;5.40;99.90
21199;DHT22;10757;51.038;3.712;2022-12-05T08:44:28;5.30;99.90
21199;DHT22;10757;51.038;3.712;2022-12-05T08:46:56;5.40;99.90
21199;DHT22;10757;51.038;3.712;2022-12-05T08:49:21;5.60;99.90
21199;DHT22;10757;51.038;3.712;2022-12-05T08:51:47;5.50;99.90
21199;DHT22;10757;51.038;3.712;2022-12-05T08:54:14;5.80;99.90
21199;DHT22;10757;51.038;3.712;2022-12-05T08:56:41;5.70;99.90
21199;DHT22;10757;51.038;3.712;2022-12-05T08:59:08;5.70;99.90
21199;DHT22;10757;51.038;3.712;2022-12-05T09:01:34;5.60;99.90
21199;DHT22;10757;51.038;3.712;2022-12-05T09:04:03;5.60;99.90
21199;DHT22;10757;51.038;3.712;2022-12-05T09:06:30;5.70;99.90
21199;DHT22;10757;51.038;3.712;2022-12-05T09:08:59;5.70;99.90
21199;DHT22;10757;51.038;3.712;2022-12-05T09:11:27;5.70;99.90
21199;DHT22;10757;51.038;3.712;2022-12-05T09:13:54;5.60;99.90
21199;DHT22;10757;51.038;3.712;2022-12-05T09:16:25;5.60;99.90
21199;DHT22;10757;51.038;3.712;2022-12-05T09:18:54;5.80;99.90
21199;DHT22;10757;51.038;3.712;2022-12-05T09:21:27;5.70;99.90
21199;DHT22;10757;51.038;3.712;2022-12-05T09:23:53;5.90;99.90
21199;DHT22;10757;51.038;3.712;2022-12-05T09:26:23;5.80;99.90
21199;DHT22;10757;51.038;3.712;2022-12-05T09:28:52;5.80;99.90
21199;DHT22;10757;51.038;3.712;2022-12-05T09:31:22;5.90;99.90
21199;DHT22;10757;51.038;3.712;2022-12-05T09:33:50;5.80;99.90
21199;DHT22;10757;51.038;3.712;2022-12-05T09:36:24;5.90;99.90
21199;DHT22;10757;51.038;3.712;2022-12-05T09:38:53;5.90;99.90
21199;DHT22;10757;51.038;3.712;2022-12-05T09:47:01;6.00;99.90
21199;DHT22;10757;51.038;3.712;2022-12-05T09:49:30;5.90;99.90
21199;DHT22;10757;51.038;3.712;2022-12-05T09:52:00;5.90;99.90
21199;DHT22;10757;51.038;3.712;2022-12-05T09:54:27;6.00;99.90
21199;DHT22;10757;51.038;3.712;2022-12-05T09:56:53;6.20;99.90
21199;DHT22;10757;51.038;3.712;2022-12-05T09:59:20;6.20;99.90
21199;DHT22;10757;51.038;3.712;2022-12-05T10:01:58;6.10;99.90
21199;DHT22;10757;51.038;3.712;2022-12-05T10:04:42;6.10;99.90
21199;DHT22;10757;51.038;3.712;2022-12-05T10:07:21;6.00;99.90
21199;DHT22;10757;51.038;3.712;2022-12-05T10:10:13;6.10;99.90
21199;DHT22;10757;51.038;3.712;2022-12-05T10:15:52;6.20;99.90
21199;DHT22;10757;51.038;3.712;2022-12-05T10:18:32;6.10;99.90
21199;DHT22;10757;51.038;3.712;2022-12-05T10:21:50;6.20;99.90
21199;DHT22;10757;51.038;3.712;2022-12-05T10:24:01;6.30;99.90
21199;DHT22;10757;51.038;3.712;2022-12-05T10:26:46;6.30;99.90
21199;DHT22;10757;51.038;3.712;2022-12-05T10:29:39;6.20;99.90
21199;DHT22;10757;51.038;3.712;2022-12-05T10:32:19;6.00;99.90
21199;DHT22;10757;51.038;3.712;2022-12-05T10:34:46;6.20;99.90
21199;DHT22;10757;51.038;3.712;2022-12-05T10:37:18;6.20;99.90
21199;DHT22;10757;51.038;3.712;2022-12-05T10:39:44;6.40;99.90
21199;DHT22;10757;51.038;3.712;2022-12-05T10:42:32;6.40;99.90
21199;DHT22;10757;51.038;3.712;2022-12-05T10:45:03;6.50;99.90
21199;DHT22;10757;51.038;3.712;2022-12-05T10:47:30;6.50;99.90
21199;DHT22;10757;51.038;3.712;2022-12-05T10:50:06;6.60;99.90
21199;DHT22;10757;51.038;3.712;2022-12-05T10:52:32;6.60;99.90
21199;DHT22;10757;51.038;3.712;2022-12-05T10:55:02;6.40;99.90
21199;DHT22;10757;51.038;3.712;2022-12-05T10:57:29;6.60;99.90
21199;DHT22;10757;51.038;3.712;2022-12-05T10:59:56;6.60;99.90
21199;DHT22;10757;51.038;3.712;2022-12-05T11:02:25;6.50;99.90
21199;DHT22;10757;51.038;3.712;2022-12-05T11:04:52;6.60;99.90
21199;DHT22;10757;51.038;3.712;2022-12-05T11:10:34;6.70;99.90
21199;DHT22;10757;51.038;3.712;2022-12-05T11:13:21;6.70;99.90
21199;DHT22;10757;51.038;3.712;2022-12-05T11:15:48;6.60;99.90
21199;DHT22;10757;51.038;3.712;2022-12-05T11:18:39;6.60;99.90
21199;DHT22;10757;51.038;3.712;2022-12-05T11:21:13;6.70;99.90
21199;DHT22;10757;51.038;3.712;2022-12-05T11:23:40;6.70;99.90
21199;DHT22;10757;51.038;3.712;2022-12-05T11:26:32;6.60;99.90
21199;DHT22;10757;51.038;3.712;2022-12-05T11:28:59;6.60;99.90
21199;DHT22;10757;51.038;3.712;2022-12-05T11:31:30;6.60;99.90
21199;DHT22;10757;51.038;3.712;2022-12-05T11:34:08;6.50;99.90
21199;DHT22;10757;51.038;3.712;2022-12-05T11:36:45;6.50;99.90
21199;DHT22;10757;51.038;3.712;2022-12-05T11:39:12;6.40;99.90
21199;DHT22;10757;51.038;3.712;2022-12-05T11:42:23;6.60;99.90
21199;DHT22;10757;51.038;3.712;2022-12-05T11:47:43;6.70;99.90
21199;DHT22;10757;51.038;3.712;2022-12-05T11:53:17;6.60;99.90
21199;DHT22;10757;51.038;3.712;2022-12-05T11:59:00;6.70;99.90
21199;DHT22;10757;51.038;3.712;2022-12-05T12:04:54;6.60;99.90
21199;DHT22;10757;51.038;3.712;2022-12-05T12:10:24;6.70;99.90
21199;DHT22;10757;51.038;3.712;2022-12-05T12:31:23;6.90;99.90
21199;DHT22;10757;51.038;3.712;2022-12-05T12:36:46;6.80;99.90
21199;DHT22;10757;51.038;3.712;2022-12-05T12:39:37;6.80;99.90
21199;DHT22;10757;51.038;3.712;2022-12-05T12:42:24;6.70;99.90
21199;DHT22;10757;51.038;3.712;2022-12-05T12:45:13;6.60;99.90
21199;DHT22;10757;51.038;3.712;2022-12-05T12:58:45;6.80;99.90
21199;DHT22;10757;51.038;3.712;2022-12-05T13:04:21;6.80;99.90
21199;DHT22;10757;51.038;3.712;2022-12-05T13:07:04;6.60;99.90
21199;DHT22;10757;51.038;3.712;2022-12-05T13:09:54;6.60;99.90
21199;DHT22;10757;51.038;3.712;2022-12-05T13:12:27;6.80;99.90
21199;DHT22;10757;51.038;3.712;2022-12-05T13:14:58;7.10;99.90
21199;DHT22;10757;51.038;3.712;2022-12-05T13:17:28;7.00;99.90
21199;DHT22;10757;51.038;3.712;2022-12-05T13:19:57;6.90;99.90
21199;DHT22;10757;51.038;3.712;2022-12-05T13:22:24;6.90;99.90
21199;DHT22;10757;51.038;3.712;2022-12-05T13:24:52;6.90;99.90
21199;DHT22;10757;51.038;3.712;2022-12-05T13:27:26;7.10;99.90
21199;DHT22;10757;51.038;3.712;2022-12-05T13:29:54;7.10;99.90
21199;DHT22;10757;51.038;3.712;2022-12-05T13:32:29;7.00;99.90
21199;DHT22;10757;51.038;3.712;2022-12-05T13:35:20;6.90;99.90
21199;DHT22;10757;51.038;3.712;2022-12-05T13:41:04;6.70;99.90
21199;DHT22;10757;51.038;3.712;2022-12-05T13:43:51;6.60;99.90
21199;DHT22;10757;51.038;3.712;2022-12-05T13:46:32;6.80;99.90
21199;DHT22;10757;51.038;3.712;2022-12-05T13:49:11;6.70;99.90
21199;DHT22;10757;51.038;3.712;2022-12-05T13:51:42;6.70;99.90
21199;DHT22;10757;51.038;3.712;2022-12-05T13:54:27;6.80;99.90
21199;DHT22;10757;51.038;3.712;2022-12-05T13:57:00;6.70;99.90
21199;DHT22;10757;51.038;3.712;2022-12-05T14:07:46;6.80;99.90
21199;DHT22;10757;51.038;3.712;2022-12-05T14:12:58;6.70;99.90
21199;DHT22;10757;51.038;3.712;2022-12-05T14:15:34;6.70;99.90
21199;DHT22;10757;51.038;3.712;2022-12-05T14:21:16;6.80;99.90
21199;DHT22;10757;51.038;3.712;2022-12-05T14:32:05;6.80;99.90
21199;DHT22;10757;51.038;3.712;2022-12-05T14:34:36;7.10;99.90
21199;DHT22;10757;51.038;3.712;2022-12-05T14:39:50;7.10;99.90
21199;DHT22;10757;51.038;3.712;2022-12-05T14:42:43;7.10;99.90
21199;DHT22;10757;51.038;3.712;2022-12-05T14:45:25;6.90;99.90
21199;DHT22;10757;51.038;3.712;2022-12-05T14:48:00;6.80;99.90
21199;DHT22;10757;51.038;3.712;2022-12-05T14:50:45;7.00;99.90
21199;DHT22;10757;51.038;3.712;2022-12-05T14:55:52;7.00;99.90
21199;DHT22;10757;51.038;3.712;2022-12-05T15:01:15;7.00;99.90
21199;DHT22;10757;51.038;3.712;2022-12-05T15:06:27;7.10;99.90
21199;DHT22;10757;51.038;3.712;2022-12-05T15:08:56;7.20;99.90
21199;DHT22;10757;51.038;3.712;2022-12-05T15:11:24;7.40;99.90
21199;DHT22;10757;51.038;3.712;2022-12-05T15:14:15;7.30;99.90
21199;DHT22;10757;51.038;3.712;2022-12-05T15:16:44;7.60;99.90
21199;DHT22;10757;51.038;3.712;2022-12-05T15:19:17;7.90;99.90
21199;DHT22;10757;51.038;3.712;2022-12-05T15:21:54;7.90;99.90
21199;DHT22;10757;51.038;3.712;2022-12-05T15:24:21;7.80;99.90
21199;DHT22;10757;51.038;3.712;2022-12-05T15:26:56;7.80;99.90
21199;DHT22;10757;51.038;3.712;2022-12-05T15:29:26;7.70;99.90
21199;DHT22;10757;51.038;3.712;2022-12-05T15:42:18;7.80;99.90
21199;DHT22;10757;51.038;3.712;2022-12-05T15:44:44;7.80;99.90
21199;DHT22;10757;51.038;3.712;2022-12-05T15:47:19;7.60;99.90
21199;DHT22;10757;51.038;3.712;2022-12-05T15:49:46;7.60;99.90
21199;DHT22;10757;51.038;3.712;2022-12-05T15:54:43;7.60;99.90
21199;DHT22;10757;51.038;3.712;2022-12-05T15:57:25;7.70;99.90
21199;DHT22;10757;51.038;3.712;2022-12-05T16:00:03;7.80;99.90
21199;DHT22;10757;51.038;3.712;2022-12-05T16:02:47;7.80;99.90
21199;DHT22;10757;51.038;3.712;2022-12-05T16:05:25;7.60;99.90
21199;DHT22;10757;51.038;3.712;2022-12-05T16:07:53;7.40;99.90
21199;DHT22;10757;51.038;3.712;2022-12-05T16:10:22;7.50;99.90
21199;DHT22;10757;51.038;3.712;2022-12-05T16:12:49;7.50;99.90
21199;DHT22;10757;51.038;3.712;2022-12-05T16:15:23;7.80;99.90
21199;DHT22;10757;51.038;3.712;2022-12-05T16:17:55;7.60;99.90
21199;DHT22;10757;51.038;3.712;2022-12-05T16:20:34;7.60;99.90
21199;DHT22;10757;51.038;3.712;2022-12-05T16:23:03;7.60;99.90
21199;DHT22;10757;51.038;3.712;2022-12-05T16:25:32;7.70;99.90
21199;DHT22;10757;51.038;3.712;2022-12-05T16:30:34;7.80;99.90
21199;DHT22;10757;51.038;3.712;2022-12-05T16:33:06;8.00;99.90
21199;DHT22;10757;51.038;3.712;2022-12-05T16:40:31;7.90;99.90
21199;DHT22;10757;51.038;3.712;2022-12-05T16:43:17;8.10;99.90
21199;DHT22;10757;51.038;3.712;2022-12-05T16:45:44;8.00;99.90
21199;DHT22;10757;51.038;3.712;2022-12-05T16:48:23;8.00;99.90
21199;DHT22;10757;51.038;3.712;2022-12-05T16:51:20;7.90;99.90
21199;DHT22;10757;51.038;3.712;2022-12-05T16:53:52;7.80;99.90
21199;DHT22;10757;51.038;3.712;2022-12-05T16:58:48;7.80;99.90
21199;DHT22;10757;51.038;3.712;2022-12-05T17:01:20;7.90;99.90
21199;DHT22;10757;51.038;3.712;2022-12-05T17:03:47;7.80;99.90
21199;DHT22;10757;51.038;3.712;2022-12-05T17:06:13;7.90;99.90
21199;DHT22;10757;51.038;3.712;2022-12-05T17:08:39;7.70;99.90
21199;DHT22;10757;51.038;3.712;2022-12-05T17:11:13;7.60;99.90
21199;DHT22;10757;51.038;3.712;2022-12-05T17:13:40;7.60;99.90
21199;DHT22;10757;51.038;3.712;2022-12-05T17:16:06;7.80;99.90
21199;DHT22;10757;51.038;3.712;2022-12-05T17:18:32;7.90;99.90
21199;DHT22;10757;51.038;3.712;2022-12-05T17:20:59;7.80;99.90
21199;DHT22;10757;51.038;3.712;2022-12-05T17:23:26;7.70;99.90
21199;DHT22;10757;51.038;3.712;2022-12-05T17:25:57;7.60;99.90
21199;DHT22;10757;51.038;3.712;2022-12-05T17:28:23;7.70;99.90
21199;DHT22;10757;51.038;3.712;2022-12-05T17:30:49;7.50;99.90
21199;DHT22;10757;51.038;3.712;2022-12-05T17:33:16;7.50;99.90
21199;DHT22;10757;51.038;3.712;2022-12-05T17:35:43;7.70;99.90
21199;DHT22;10757;51.038;3.712;2022-12-05T17:38:09;7.80;99.90
21199;DHT22;10757;51.038;3.712;2022-12-05T17:40:36;7.90;99.90
21199;DHT22;10757;51.038;3.712;2022-12-05T17:43:02;8.10;99.90
21199;DHT22;10757;51.038;3.712;2022-12-05T17:45:29;8.20;99.90
21199;DHT22;10757;51.038;3.712;2022-12-05T17:47:55;8.20;99.90
21199;DHT22;10757;51.038;3.712;2022-12-05T17:50:22;8.20;99.90
21199;DHT22;10757;51.038;3.712;2022-12-05T17:52:49;8.30;99.90
21199;DHT22;10757;51.038;3.712;2022-12-05T17:55:21;8.30;99.90
21199;DHT22;10757;51.038;3.712;2022-12-05T17:57:47;8.30;99.90
21199;DHT22;10757;51.038;3.712;2022-12-05T18:00:15;8.20;99.90
21199;DHT22;10757;51.038;3.712;2022-12-05T18:02:42;8.30;99.90
21199;DHT22;10757;51.038;3.712;2022-12-05T18:05:10;8.20;99.90
21199;DHT22;10757;51.038;3.712;2022-12-05T18:07:37;8.10;99.90
21199;DHT22;10757;51.038;3.712;2022-12-05T18:10:04;8.10;99.90
21199;DHT22;10757;51.038;3.712;2022-12-05T18:12:30;8.30;99.90
21199;DHT22;10757;51.038;3.712;2022-12-05T18:14:55;8.40;99.90
21199;DHT22;10757;51.038;3.712;2022-12-05T18:17:21;8.40;99.90
21199;DHT22;10757;51.038;3.712;2022-12-05T18:19:47;8.50;99.90
21199;DHT22;10757;51.038;3.712;2022-12-05T18:22:13;8.30;99.90
21199;DHT22;10757;51.038;3.712;2022-12-05T18:24:39;8.00;99.90
21199;DHT22;10757;51.038;3.712;2022-12-05T18:27:04;8.20;99.90
21199;DHT22;10757;51.038;3.712;2022-12-05T18:29:30;8.00;99.90
21199;DHT22;10757;51.038;3.712;2022-12-05T18:31:56;7.90;99.90
21199;DHT22;10757;51.038;3.712;2022-12-05T18:34:21;7.90;99.90
21199;DHT22;10757;51.038;3.712;2022-12-05T18:36:47;7.80;99.90
21199;DHT22;10757;51.038;3.712;2022-12-05T18:39:13;7.90;99.90
21199;DHT22;10757;51.038;3.712;2022-12-05T18:41:40;8.20;99.90
21199;DHT22;10757;51.038;3.712;2022-12-05T18:44:07;7.90;99.90
21199;DHT22;10757;51.038;3.712;2022-12-05T18:46:36;7.60;99.90
21199;DHT22;10757;51.038;3.712;2022-12-05T18:49:05;7.50;99.90